Tiempo atmosférico en la estación meteorológica de Fuerteventura Aeropuerto, Las Palmas (25 m.)

Fecha
DESCASC
Temp. máxima en grados centígrados (hora)
DESCASC
Temp. mínima en grados centígrados (hora)
DESCASC
Temp. media en grados centígrados
DESCASC
Racha de viento máxima en m/sg (hora)
DESCASC
Velocidad máxima media en intervalos de 10 minutos(hora)
DESCASC
Precipitaciones diarias en mm
DESCASC
Precipitaciones de 00:00 a 06:00 en mm
DESCASC
Precipitaciones de 06:00 a 12:00 en mm
DESCASC
Precipitaciones de 12:00 a 18:00 en mm
DESCASC
Precipitaciones de 18:00 a 24:00 en mm
DESCASC
17-08-2017 29.2 (15:00) 24 (00:30) 26.6 10.83 (12:40) 8.61 (12:30) 0 0 0 0 0
16-08-2017 27.1 (14:50) 21.9 (07:30) 24.5 11.67 (04:00) 8.61 (00:40) 0 0 0 0 0
15-08-2017 26.9 (14:40) 22.2 (00:00) 24.6 11.39 (22:50) 8.61 (22:30) 0 0 0 0 0
14-08-2017 28.9 (15:30) 20.8 (06:30) 24.8 13.33 (16:30) 10.83 (16:40) 0 0 0 0 0
13-08-2017 30.8 (17:50) 22 (00:00) 26.4 13.89 (18:00) 10 (13:40) 0 0 0 0 0
12-08-2017 31 (17:00) 21.8 (00:00) 26.4 13.89 (19:50) 8.89 (17:10) 0 0 0 0 0
11-08-2017 27.3 (13:00) 21.6 (00:00) 24.4 11.39 (12:40) 8.61 (12:40) 0 0 0 0 0
10-08-2017 26.5 (14:40) 22.5 (00:00) 24.5 15 (06:40) 11.67 (06:40) 0 0 0 0 0
09-08-2017 29.1 (14:20) 23.5 (00:00) 26.3 15 (23:59) 11.11 (23:30) 0 0 0 0 0
08-08-2017 31.1 (06:10) 24.8 (00:00) 27.9 9.17 (14:10) 7.22 (17:50) 0 0 0 0 0
07-08-2017 34.7 (08:50) 25.5 (00:00) 30.1 12.78 (19:30) 9.72 (19:30) 0 0 0 0 0
06-08-2017 34.4 (18:10) 22.8 (00:00) 28.6 15.28 (20:40) 10.83 (21:50) 0 0 0 0 0
05-08-2017 29 (18:40) 22.2 (00:00) 25.6 13.89 (17:40) 10.56 (17:40) 0 0 0 0 0
04-08-2017 30 (18:10) 21.3 (00:00) 25.6 16.11 (19:00) 10 (16:10) 0 0 0 0 0
03-08-2017 26.9 (14:20) 20.9 (00:00) 23.9 11.39 (14:00) 8.89 (14:00) 0 0 0 0 0
02-08-2017 27.1 (14:30) 21.4 (00:00) 24.3 12.5 (20:20) 9.17 (18:30) 0 0 0 0 0
01-08-2017 27 (15:00) 21.9 (00:00) 24.4 10.28 (00:10) 8.33 (00:10) 0 0 0 0 0
31-07-2017 26.8 (14:50) 21.4 (00:00) 24.1 10.83 (05:10) 8.61 (23:59) 0 0 0 0 0
30-07-2017 26.2 (16:30) 21 (00:00) 23.6 11.39 (12:10) 9.17 (12:20) 0 0 0 0 0
29-07-2017 28.6 (16:50) 22.8 (00:00) 25.7 11.67 (17:40) 9.44 (17:40) 0 0 0 0 0
28-07-2017 31.7 (17:10) 24 (00:00) 27.9 13.89 (04:00) 10.28 (04:10) 0 0 0 0 0
27-07-2017 32 (19:00) 22 (00:00) 27 9.17 (08:30) 7.5 (08:30) 0 0 0 0 0
26-07-2017 30.6 (17:50) 21.8 (00:00) 26.2 11.67 (15:10) 9.17 (15:10) 0 0 0 0 0
25-07-2017 27.9 (19:30) 22.8 (00:00) 25.3 12.5 (22:00) 8.61 (15:30) 0 0 0 0 0
24-07-2017 29.1 (16:50) 21.8 (00:00) 25.4 11.67 (09:40) 8.89 (10:40) 0 0 0 0 0
23-07-2017 26.9 (16:10) 20.8 (00:00) 23.8 13.33 (01:20) 10.28 (01:30) 0 0 0 0 0
22-07-2017 27 (15:20) 21.1 (00:00) 24.1 14.44 (11:10) 11.11 (21:40) 0 0 0 0 0
21-07-2017 -- (--) -- (--) -- -- (--) -- (--) -- 0 0 -- 0
20-07-2017 26.8 (15:10) 22.1 (00:00) 24.4 12.5 (20:50) 10.28 (21:10) 0 0 0 0 0
19-07-2017 26.4 (13:10) 21.3 (00:00) 23.8 11.39 (14:10) 8.61 (13:40) 0 0 0 0 0

Gráficas

Temp. máximas Temp. mínimas Temp. medias Precipitaciones Rachas de viento máximas Velocidades máximas media en intervalos de 10 minutos

Datos horarios

Fecha y hora oficial Temperatura (ºC) Velocidad del viento (km/h) Dirección del viento Racha (km/h) Dirección de racha Precipitación (mm) Presión (hPa) Tendencia (hPa) Humedad (%)
2017-08-17 23:00:00 24.9 19 Norte 30 Norte 0 1013.1 1.4 68
2017-08-17 22:00:00 24.4 17 Norte 30 Nordeste 0 1012.7 1.4 80
2017-08-17 21:00:00 24.8 26 Nordeste 32 Nordeste 0 1012.3 0.8 81
2017-08-17 20:00:00 26.4 24 Nordeste 32 Nordeste 0 1011.7 -0.3 74
2017-08-17 19:00:00 27.5 25 Nordeste 32 Nordeste 0 1011.3 -1.1 71
2017-08-17 18:00:00 27.8 19 Nordeste 28 Nordeste 0 1011.5 -1.3 67
2017-08-17 17:00:00 28.4 22 Nordeste 30 Nordeste 0 1012 -1.1 61
2017-08-17 16:00:00 28.5 22 Nordeste 32 Nordeste 0 1012.4 -0.8 59
2017-08-17 15:00:00 28.9 25 Nordeste 39 Nordeste 0 1012.8 -1.3 55
2017-08-17 14:00:00 28 28 Nordeste 37 Norte 0 1013.1 -0.7 60
2017-08-17 13:00:00 27.9 28 Norte 39 Norte 0 1013.2 -0.4 61
2017-08-17 12:00:00 27.2 24 Nordeste 35 Nordeste 0 1014.1 1.3 65
2017-08-17 11:00:00 26.8 24 Nordeste 33 Norte 0 1013.8 1.5 66
2017-08-17 10:00:00 26.6 18 Nordeste 32 Norte 0 1013.6 1.8 62
2017-08-17 09:00:00 26.2 22 Norte 32 Norte 0 1012.8 0.9 54
2017-08-17 08:00:00 24.4 22 Norte 32 Norte 0 1012.3 0.4 58
2017-08-17 07:00:00 24.3 22 Norte 35 Norte 0 1011.8 -0.2 59
2017-08-17 06:00:00 24.4 22 Norte 32 Norte 0 1011.9 -0.7 58
2017-08-17 05:00:00 24.3 23 Norte 32 Norte 0 1011.9 -1.2 58
2017-08-17 04:00:00 24.7 26 Norte 33 Norte 0 1012 -1.3 57
2017-08-17 03:00:00 24.8 24 Norte 33 Norte 0 1012.6 -1.1 58
2017-08-17 02:00:00 24.8 24 Norte 33 Norte 0 1013.1 -0.9 61
2017-08-17 01:00:00 24.6 23 Norte 30 Norte 0 1013.3 -0.8 58
2017-08-17 00:00:00 24.5 21 Norte 33 Norte 0 1013.7 -0.4 65
2017-08-16 23:00:00 24.3 23 Norte 32 Norte 0 1014 0.5 69
2017-08-16 22:00:00 24.1 22 Norte 33 Nordeste 0 1014.1 0.7 80
2017-08-16 21:00:00 24.3 21 Nordeste 30 Nordeste 0 1014.1 0.7 81
2017-08-16 20:00:00 24.8 17 Nordeste 26 Norte 0 1013.5 0 81
2017-08-16 19:00:00 25.4 19 Nordeste 33 Nordeste 0 1013.4 -0.3 77
2017-08-16 18:00:00 25.9 23 Nordeste 35 Nordeste 0 1013.4 -0.5 74
2017-08-16 17:00:00 26.4 27 Nordeste 35 Nordeste 0 1013.5 -0.8 72
2017-08-16 16:00:00 26.5 26 Nordeste 35 Nordeste 0 1013.7 -0.7 71
2017-08-16 15:00:00 26.7 28 Nordeste 37 Nordeste 0 1013.9 -0.9 71
2017-08-16 14:00:00 26.6 28 Nordeste 37 Nordeste 0 1014.3 -0.6 70
2017-08-16 13:00:00 26.5 28 Nordeste 37 Nordeste 0 1014.4 -0.4 71
2017-08-16 12:00:00 26.2 25 Nordeste 33 Nordeste 0 1014.8 0.1 71
2017-08-16 11:00:00 25.2 24 Nordeste 30 Nordeste 0 1014.9 0.5 73
2017-08-16 10:00:00 24.3 20 Nordeste 28 Nordeste 0 1014.8 0.7 75
2017-08-16 09:00:00 23.5 23 Nordeste 30 Nordeste 0 1014.7 1 79
2017-08-16 08:00:00 22 14 Norte 21 Norte 0 1014.4 0.7 83
2017-08-16 07:00:00 22.5 13 Norte 30 Nordeste 0 1014.1 0.2 84
2017-08-16 06:00:00 22.6 23 Nordeste 35 Nordeste 0 1013.7 -0.5 82
2017-08-16 05:00:00 22.9 28 Norte 39 Nordeste 0 1013.7 -1 82
2017-08-16 04:00:00 23.1 28 Nordeste 42 Nordeste 0 1013.9 -1.2 82
2017-08-16 03:00:00 23.4 25 Nordeste 37 Nordeste 0 1014.2 -1.3 83
2017-08-16 02:00:00 23.8 24 Nordeste 39 Nordeste 0 1014.7 -0.9 81
2017-08-16 01:00:00 24 26 Nordeste 41 Nordeste 0 1015.1 -0.2 81
2017-08-16 00:00:00 23.9 28 Nordeste 41 Nordeste 0 1015.5 0.8 79
2017-08-15 23:00:00 23.9 24 Nordeste 41 Nordeste 0 1015.6 1.3 80
2017-08-15 22:00:00 23.7 28 Nordeste 39 Nordeste 0 1015.3 1.2 82
2017-08-15 21:00:00 23.8 26 Nordeste 33 Nordeste 0 1014.7 0.5 80
2017-08-15 20:00:00 24.2 23 Nordeste 30 Nordeste 0 1014.3 0.1 77
2017-08-15 19:00:00 25.1 23 Nordeste 28 Nordeste 0 1014.1 -0.4 73
2017-08-15 18:00:00 25.8 23 Nordeste 30 Nordeste 0 1014.2 -0.5 70
2017-08-15 17:00:00 26.2 22 Nordeste 30 Nordeste 0 1014.2 -0.5 68
2017-08-15 16:00:00 26.3 21 Nordeste 26 Nordeste 0 1014.5 -0.1 67
2017-08-15 15:00:00 26.4 21 Nordeste 28 Nordeste 0 1014.7 -0.2 66
2017-08-15 14:00:00 26.5 20 Nordeste 28 Nordeste 0 1014.7 -0.3 67
2017-08-15 13:00:00 26 20 Nordeste 28 Nordeste 0 1014.6 -0.3 67
2017-08-15 12:00:00 25.9 21 Nordeste 32 Nordeste 0 1014.9 0.5 66
2017-08-15 11:00:00 24.5 17 Nordeste 26 Nordeste 0 1015 1.1 70
2017-08-15 10:00:00 24 13 Nordeste 24 Nordeste 0 1014.9 1.5 75
2017-08-15 09:00:00 22.9 14 Norte 21 Norte 0 1014.4 1.4 76
2017-08-15 08:00:00 22.2 11 Norte 17 Norte 0 1013.9 1.1 78
2017-08-15 07:00:00 22.6 11 Nordeste 21 Nordeste 0 1013.4 0.8 79
2017-08-15 06:00:00 22.5 16 Nordeste 24 Nordeste 0 1013 0.4 78
2017-08-15 05:00:00 22.6 16 Nordeste 24 Nordeste 0 1012.8 -0.4 80
2017-08-15 04:00:00 22.6 16 Nordeste 24 Nordeste 0 1012.6 -1 80
2017-08-15 03:00:00 22.9 19 Nordeste 26 Nordeste 0 1012.6 -1 82
2017-08-15 02:00:00 23.3 17 Nordeste 28 Nordeste 0 1013.2 -0.2 84
2017-08-15 01:00:00 23.5 21 Nordeste 28 Nordeste 0 1013.6 1 85
2017-08-15 00:00:00 23.3 17 Nordeste 32 Norte 0 1013.6 1.7 85
2017-08-14 23:00:00 23.9 24 Norte 32 Norte 0 1013.4 2.3 79
2017-08-14 22:00:00 24.6 13 Nordeste 26 Nordeste 0 1012.6 1.8 77
2017-08-14 21:00:00 24.8 13 Nordeste 30 Nordeste 0 1011.9 1 79
2017-08-14 20:00:00 26 15 Nordeste 39 Norte 0 1011.1 0 74
2017-08-14 19:00:00 26.3 26 Nordeste 37 Nordeste 0 1010.8 -0.2 73
2017-08-14 18:00:00 26.5 27 Nordeste 41 Nordeste 0 1010.9 -0.4 71
2017-08-14 17:00:00 27.1 35 Nordeste 48 Nordeste 0 1011.1 -0.4 67
2017-08-14 16:00:00 28.6 35 Nordeste 45 Nordeste 0 1011 -0.9 63
2017-08-14 15:00:00 28.6 29 Nordeste 39 Nordeste 0 1011.3 -0.7 63
2017-08-14 14:00:00 28.3 27 Nordeste 37 Nordeste 0 1011.5 -0.4 63
2017-08-14 13:00:00 27.8 24 Nordeste 33 Nordeste 0 1011.9 0.4 65
2017-08-14 12:00:00 27.1 12 Sudeste 17 Sudeste 0 1012 1 61
2017-08-14 11:00:00 25.8 6 Sudeste 13 Sudeste 0 1011.9 1 63
2017-08-14 10:00:00 24.5 9 Sudeste 30 Noroeste 0 1011.5 1 69
2017-08-14 09:00:00 24.4 15 Noroeste 37 Oeste 0 1011 0.4 60
2017-08-14 08:00:00 22.2 17 Noroeste 30 Oeste 0 1010.9 0.2 75
2017-08-14 07:00:00 21.6 9 Noroeste 18 Noroeste 0 1010.5 -0.6 76
2017-08-14 06:00:00 21.4 7 Noroeste 17 Noroeste 0 1010.6 -0.5 78
2017-08-14 05:00:00 22 11 Noroeste 17 Noroeste 0 1010.7 -0.8 78
2017-08-14 04:00:00 22 5 Oeste 22 Oeste 0 1011.1 -0.8 74
2017-08-14 03:00:00 22.5 14 Noroeste 26 Noroeste 0 1011.1 -1.1 76
2017-08-14 02:00:00 22.9 13 Noroeste 30 Noroeste 0 1011.5 -0.7 73
2017-08-14 01:00:00 23.1 15 Noroeste 24 Noroeste 0 1011.9 0.1 74
2017-08-14 00:00:00 23.2 15 Oeste 37 Noroeste 0 1012.2 1.1 74
2017-08-13 23:00:00 24 18 Noroeste 26 Oeste 0 1012.2 1.6 70
2017-08-13 22:00:00 25.1 4 Noroeste 18 Noroeste 0 1011.8 1.3 62
2017-08-13 21:00:00 25.6 10 Oeste 35 Oeste 0 1011.1 0.5 61
2017-08-13 20:00:00 27.4 20 Noroeste 33 Noroeste 0 1010.6 -0.4 57
2017-08-13 19:00:00 29.2 21 Noroeste 48 Noroeste 0 1010.5 -0.7 48
2017-08-13 18:00:00 30.5 20 Noroeste 50 Noroeste 0 1010.6 -1 44
2017-08-13 17:00:00 26.5 22 Nordeste 37 Nordeste 0 1011 -1.1 68
2017-08-13 16:00:00 27.4 30 Nordeste 42 Nordeste 0 1011.2 -1.3 65
2017-08-13 15:00:00 27.5 32 Nordeste 41 Nordeste 0 1011.6 -1.3 63
2017-08-13 14:00:00 27.2 32 Nordeste 46 Nordeste 0 1012.1 -0.9 65
2017-08-13 13:00:00 26.2 16 Este 24 Este 0 1012.5 0.1 69
2017-08-13 12:00:00 25.8 19 Nordeste 30 Nordeste 0 1012.9 0.7 71
2017-08-13 11:00:00 25.8 24 Nordeste 35 Nordeste 0 1013 1.1 69
2017-08-13 10:00:00 26.3 22 Nordeste 28 Nordeste 0 1012.4 1 55
2017-08-13 09:00:00 24.7 3 Sur 15 Noroeste 0 1012.2 0.5 51
2017-08-13 08:00:00 22.7 3 Norte 24 Noroeste 0 1011.9 0.1 52
2017-08-13 07:00:00 22.4 14 Norte 18 Norte 0 1011.4 -0.4 53
2017-08-13 06:00:00 23 10 Noroeste 17 Noroeste 0 1011.7 -0.6 55
2017-08-13 05:00:00 23.3 17 Norte 22 Noroeste 0 1011.8 -1.3 52
2017-08-13 04:00:00 23.5 17 Noroeste 30 Norte 0 1011.8 -1.7 52
2017-08-13 03:00:00 23.5 23 Norte 30 Norte 0 1012.3 -1.2 53
2017-08-13 02:00:00 23.8 17 Norte 24 Norte 0 1013.1 -0.5 50
2017-08-13 01:00:00 24.8 15 Norte 26 Norte 0 1013.5 0.2 45
2017-08-13 00:00:00 25.9 23 Noroeste 33 Norte 0 1013.5 0.4 37
2017-08-12 23:00:00 26 25 Noroeste 42 Noroeste 0 1013.6 0.8 40
2017-08-12 22:00:00 26.2 26 Noroeste 33 Norte 0 1013.3 0.6 43
2017-08-12 21:00:00 26.7 22 Norte 37 Norte 0 1013.1 0.2 45
2017-08-12 20:00:00 28.5 27 Norte 50 Norte 0 1012.8 -0.1 42
2017-08-12 19:00:00 29.7 25 Norte 41 Norte 0 1012.7 -0.6 42
2017-08-12 18:00:00 30.2 28 Norte 46 Norte 0 1012.9 -0.8 45
2017-08-12 17:00:00 30.7 30 Norte 41 Norte 0 1012.9 -1.2 47
2017-08-12 16:00:00 29.2 24 Norte 37 Norte 0 1013.3 -1.4 60
2017-08-12 15:00:00 27.3 20 Nordeste 30 Nordeste 0 1013.7 -1.4 66
2017-08-12 14:00:00 27.5 24 Nordeste 32 Nordeste 0 1014.1 -0.8 60
2017-08-12 13:00:00 27 23 Nordeste 32 Nordeste 0 1014.7 0.2 63
2017-08-12 12:00:00 25.7 21 Nordeste 28 Nordeste 0 1015.1 1.7 70
2017-08-12 11:00:00 25.6 24 Nordeste 33 Norte 0 1014.9 1.6 65
2017-08-12 10:00:00 24.2 23 Norte 33 Nordeste 0 1014.5 2 69
2017-08-12 09:00:00 23.6 20 Norte 32 Norte 0 1013.4 0.4 72
2017-08-12 08:00:00 23 18 Norte 30 Norte 0 1013.3 0 76
2017-08-12 07:00:00 22.4 15 Norte 26 Norte 0 1012.5 -0.8 77
2017-08-12 06:00:00 22.5 8 Norte 17 Norte 0 1013 -0.4 80
2017-08-12 05:00:00 22.1 11 Norte 18 Norte 0 1013.3 -0.6 79
2017-08-12 04:00:00 22 9 Norte 18 Norte 0 1013.3 -0.2 80
2017-08-12 03:00:00 22.3 15 Norte 28 Norte 0 1013.4 0.2 78
2017-08-12 02:00:00 23 19 Norte 32 Norte 0 1013.9 0.4 74
2017-08-12 01:00:00 23.8 15 Norte 33 Norte 0 1013.5 0.3 55
2017-08-12 00:00:00 23.6 27 Norte 35 Norte 0 1013.2 0.4 66
2017-08-11 23:00:00 23.5 25 Norte 32 Norte 0 1013.5 0.7 78
2017-08-11 22:00:00 23.4 24 Norte 35 Norte 0 1013.2 0.1 84
2017-08-11 21:00:00 23.6 28 Nordeste 37 Nordeste 0 1012.8 -0.4 84
2017-08-11 20:00:00 24.3 24 Norte 33 Norte 0 1012.8 -0.4 79
2017-08-11 19:00:00 25.3 21 Nordeste 28 Nordeste 0 1013.1 -0.2 75
2017-08-11 18:00:00 25.8 21 Nordeste 30 Nordeste 0 1013.2 -0.3 72
2017-08-11 17:00:00 26 21 Nordeste 26 Nordeste 0 1013.2 -0.7 72
2017-08-11 16:00:00 26.2 19 Nordeste 30 Nordeste 0 1013.3 -0.1 70
2017-08-11 15:00:00 26.3 19 Nordeste 26 Nordeste 0 1013.5 -0.3 68
2017-08-11 14:00:00 26.6 19 Nordeste 33 Nordeste 0 1013.9 -0.2 66
2017-08-11 13:00:00 27.1 30 Nordeste 41 Norte 0 1013.4 -0.2 60
2017-08-11 12:00:00 26.5 30 Nordeste 37 Nordeste 0 1013.8 0.7 65
2017-08-11 11:00:00 25.7 23 Nordeste 33 Norte 0 1014.1 1.9 64
2017-08-11 10:00:00 24.9 27 Norte 37 Norte 0 1013.6 1.9 67
2017-08-11 09:00:00 24 22 Norte 33 Norte 0 1013.1 1.8 65
2017-08-11 08:00:00 22.2 17 Norte 26 Norte 0 1012.2 1 70
2017-08-11 07:00:00 21.8 14 Norte 32 Norte 0 1011.7 0.6 72
2017-08-11 06:00:00 21.7 16 Norte 32 Norte 0 1011.3 0.1 71
2017-08-11 05:00:00 21.9 17 Norte 32 Norte 0 1011.2 -0.6 70
2017-08-11 04:00:00 21.8 17 Norte 33 Norte 0 1011.1 -1.1 72
2017-08-11 03:00:00 21.8 18 Norte 35 Norte 0 1011.2 -1.2 74
2017-08-11 02:00:00 22 24 Norte 35 Norte 0 1011.8 -0.7 77
2017-08-11 01:00:00 22.3 26 Norte 37 Norte 0 1012.2 0.3 74
2017-08-11 00:00:00 22.5 26 Norte 37 Norte 0 1012.4 0.9 76
2017-08-10 23:00:00 22.7 28 Norte 41 Norte 0 1012.5 1.1 75
2017-08-10 22:00:00 23.2 28 Norte 39 Norte 0 1011.9 0.6 77
2017-08-10 21:00:00 23.3 29 Norte 39 Nordeste 0 1011.5 -0.2 84
2017-08-10 20:00:00 24.1 35 Nordeste 42 Nordeste 0 1011.4 -0.5 79
2017-08-10 19:00:00 25.1 31 Norte 41 Norte 0 1011.3 -1.1 73
2017-08-10 18:00:00 25.4 32 Nordeste 46 Nordeste 0 1011.7 -1.4 72
2017-08-10 17:00:00 25.8 33 Nordeste 42 Nordeste 0 1011.9 -1.4 71
2017-08-10 16:00:00 26.2 28 Nordeste 41 Nordeste 0 1012.4 -1.3 69
2017-08-10 15:00:00 26 31 Nordeste 45 Nordeste 0 1013.1 -0.5 69
2017-08-10 14:00:00 25.8 36 Nordeste 45 Nordeste 0 1013.3 0 69
2017-08-10 13:00:00 26 33 Nordeste 45 Nordeste 0 1013.7 1.1 69
2017-08-10 12:00:00 25.5 35 Nordeste 45 Nordeste 0 1013.6 1.3 71
2017-08-10 11:00:00 25 37 Nordeste 48 Nordeste 0 1013.3 1.1 73
2017-08-10 10:00:00 24.3 38 Nordeste 52 Norte 0 1012.6 0.9 74
2017-08-10 09:00:00 23.5 38 Norte 50 Nordeste 0 1012.3 0.7 76
2017-08-10 08:00:00 22.7 29 Norte 50 Norte 0 1012.2 0.7 79
2017-08-10 07:00:00 22.6 38 Norte 54 Norte 0 1011.7 0.1 78
2017-08-10 06:00:00 22.6 35 Norte 46 Norte 0 1011.6 -0.3 79
2017-08-10 05:00:00 22.6 35 Norte 52 Norte 0 1011.5 -1.2 80
2017-08-10 04:00:00 22.7 39 Nordeste 52 Nordeste 0 1011.6 -1.4 80
2017-08-10 03:00:00 22.8 36 Norte 46 Norte 0 1011.9 -0.9 81
2017-08-10 02:00:00 23 34 Norte 48 Norte 0 1012.7 0.3 82
2017-08-10 01:00:00 23.3 39 Norte 52 Norte 0 1013 1.4 78
2017-08-10 00:00:00 23.5 40 Nordeste 54 Nordeste 0 1012.8 2.1 78
2017-08-09 23:00:00 23.9 24 Nordeste 37 Nordeste 0 1012.4 2 78
2017-08-09 22:00:00 24.6 25 Nordeste 37 Norte 0 1011.6 1.3 72
2017-08-09 21:00:00 25.4 26 Norte 42 Nordeste 0 1010.7 0.3 68
2017-08-09 20:00:00 26.4 28 Nordeste 39 Nordeste 0 1010.4 0 64
2017-08-09 19:00:00 27.7 22 Nordeste 32 Norte 0 1010.3 -0.4 58
2017-08-09 18:00:00 27.6 21 Nordeste 35 Nordeste 0 1010.4 -0.7 65
2017-08-09 17:00:00 28.3 28 Nordeste 41 Nordeste 0 1010.4 -1.1 62
2017-08-09 16:00:00 28.5 30 Nordeste 42 Nordeste 0 1010.7 -1.2 58
2017-08-09 15:00:00 28.6 30 Norte 41 Norte 0 1011.1 -0.8 57
2017-08-09 14:00:00 28.4 30 Norte 46 Norte 0 1011.5 -0.2 59
2017-08-09 13:00:00 28 30 Nordeste 39 Nordeste 0 1011.9 0.4 61
2017-08-09 12:00:00 27.6 28 Nordeste 39 Nordeste 0 1011.9 0.7 62
2017-08-09 11:00:00 26.9 30 Norte 39 Nordeste 0 1011.7 1.2 65
2017-08-09 10:00:00 25.9 26 Nordeste 37 Nordeste 0 1011.5 1.4 71
2017-08-09 09:00:00 25 22 Nordeste 30 Nordeste 0 1011.2 1.8 75
2017-08-09 08:00:00 24.2 16 Nordeste 24 Nordeste 0 1010.5 1.2 77
2017-08-09 07:00:00 24.1 0 Calma 22 Norte 0 1010.1 0.9 71
2017-08-09 06:00:00 24.6 22 Norte 32 Norte 0 1009.4 -0.4 68
2017-08-09 05:00:00 24.8 19 Norte 33 Nordeste 0 1009.3 -1 70
2017-08-09 04:00:00 24.4 13 Norte 30 Norte 0 1009.2 -1.9 72
2017-08-09 03:00:00 25.2 20 Norte 37 Norte 0 1009.8 -1.6 62
2017-08-09 02:00:00 25.3 28 Norte 35 Norte 0 1010.3 -0.7 65
2017-08-09 01:00:00 25.3 18 Norte 26 Norte 0 1011.1 0.7 64
2017-08-09 00:00:00 25.3 17 Norte 26 Norte 0 1011.4 1.8 67
2017-08-08 23:00:00 25 10 Norte 28 Norte 0 1011 1.8 74
2017-08-08 22:00:00 24.9 19 Norte 32 Norte 0 1010.4 1.5 77
2017-08-08 21:00:00 25.3 21 Norte 30 Norte 0 1009.6 0.7 76
2017-08-08 20:00:00 26 24 Norte 33 Norte 0 1009.2 0.2 74
2017-08-08 19:00:00 27 26 Norte 33 Norte 0 1008.9 -0.4 69
2017-08-08 18:00:00 27.5 26 Norte 33 Norte 0 1008.9 -0.6 66
2017-08-08 17:00:00 27.8 22 Norte 30 Norte 0 1009 -1 66
2017-08-08 16:00:00 28.4 20 Norte 33 Norte 0 1009.3 -1 64
2017-08-08 15:00:00 28.2 25 Norte 33 Norte 0 1009.5 -0.8 65
2017-08-08 14:00:00 28.2 23 Norte 32 Norte 0 1010 0.2 66
2017-08-08 13:00:00 27.8 21 Nordeste 26 Nordeste 0 1010.3 1.2 68
2017-08-08 12:00:00 27.6 14 Nordeste 21 Nordeste 0 1010.3 1.9 70
2017-08-08 11:00:00 27.5 14 Nordeste 21 Nordeste 0 1009.8 2.1 69
2017-08-08 10:00:00 27.4 10 Nordeste 21 Nordeste 0 1009.1 2.6 65
2017-08-08 09:00:00 26.6 14 Nordeste 18 Nordeste 0 1008.4 2.5 70
2017-08-08 08:00:00 27.5 0 Calma 18 Nordeste 0 1007.7 1.3 61
2017-08-08 07:00:00 30 12 Norte 32 Norte 0 1006.5 -0.2 39
2017-08-08 06:00:00 30.8 24 Norte 32 Norte 0 1005.9 -1.4 31
2017-08-08 05:00:00 29.8 23 Norte 32 Norte 0 1006.4 -1.3 37
2017-08-08 04:00:00 26.4 13 Norte 22 Norte 0 1006.7 -2.4 67
2017-08-08 03:00:00 27.2 21 Norte 26 Norte 0 1007.3 -1.2 60
2017-08-08 02:00:00 27.8 13 Norte 21 Noroeste 0 1007.7 -0.5 57
2017-08-08 01:00:00 26.6 14 Norte 28 Nordeste 0 1009.1 2.2 68
2017-08-08 00:00:00 25.7 19 Norte 33 Norte 0 1008.5 1.9 81
2017-08-07 23:00:00 25.8 17 Norte 24 Norte 0 1008.2 2.7 81
2017-08-07 22:00:00 27.2 0 Calma 17 Norte 0 1006.9 1.8 67
2017-08-07 21:00:00 27.1 17 Norte 35 Nordeste 0 1006.6 0.9 68
2017-08-07 20:00:00 28.2 28 Norte 46 Norte 0 1005.5 -0.4 63
2017-08-07 19:00:00 28.9 30 Norte 37 Norte 0 1005.1 -1.3 62
2017-08-07 18:00:00 29.2 17 Nordeste 30 Norte 0 1005.7 -1.1 62
2017-08-07 17:00:00 29.3 22 Norte 32 Norte 0 1005.9 -1.1 63
2017-08-07 16:00:00 29.2 24 Norte 33 Norte 0 1006.4 -1.2 64
2017-08-07 15:00:00 29.1 15 Nordeste 35 Nordeste 0 1006.8 -1 64
2017-08-07 14:00:00 29.8 27 Norte 35 Nordeste 0 1007 -0.8 60
2017-08-07 13:00:00 29.2 15 Nordeste 24 Nordeste 0 1007.6 1.8 64
2017-08-07 12:00:00 28.4 9 Nordeste 22 Norte 0 1007.8 2.6 68
2017-08-07 11:00:00 28.2 10 Nordeste 42 Norte 0 1007.8 2.5 68
2017-08-07 10:00:00 29.1 27 Norte 39 Nordeste 0 1005.8 1.1 61
2017-08-07 09:00:00 33.8 7 Nordeste 26 Oeste 0 1005.2 0.3 37
2017-08-07 08:00:00 28.5 7 Norte 26 Norte 0 1005.3 0.7 63
2017-08-07 07:00:00 31.9 14 Nordeste 18 Nordeste 0 1004.7 -0.4 38
2017-08-07 06:00:00 33.5 10 Oeste 32 Oeste 0 1004.9 -1.7 28
2017-08-07 05:00:00 30.2 21 Norte 35 Norte 0 1004.6 -2.3 37
2017-08-07 04:00:00 26.7 22 Norte 30 Nordeste 0 1005.1 -3.4 65
2017-08-07 03:00:00 27.2 3 Este 18 Norte 0 1006.6 -1 66
2017-08-07 02:00:00 26.6 8 Norte 15 Norte 0 1006.9 -0.2 69
2017-08-07 01:00:00 26.2 10 Norte 32 Norte 0 1008.5 1.5 71
2017-08-07 00:00:00 26.1 22 Norte 28 Norte 0 1007.6 2.8 73
2017-08-06 23:00:00 27.3 13 Noroeste 39 Norte 0 1007.1 2.6 67
2017-08-06 22:00:00 25.3 31 Nordeste 48 Norte 0 1007 2.5 82
2017-08-06 21:00:00 29.4 24 Noroeste 55 Oeste 0 1004.8 0.3 55
2017-08-06 20:00:00 31.1 23 Oeste 41 Oeste 0 1004.5 -0.7 51
2017-08-06 19:00:00 33.3 19 Noroeste 48 Oeste 0 1004.5 -1.8 44
2017-08-06 18:00:00 34.1 19 Noroeste 39 Oeste 0 1004.5 -2.5 44
2017-08-06 17:00:00 31.6 13 Oeste 30 Noroeste 0 1005.2 -2 55
2017-08-06 16:00:00 29.7 5 Sudeste 18 Este 0 1006.3 -1.4 65
2017-08-06 15:00:00 27.3 12 Este 21 Este 0 1007 -1.3 73
2017-08-06 14:00:00 27.5 12 Nordeste 21 Nordeste 0 1007.2 -1.9 70
2017-08-06 13:00:00 27.4 12 Nordeste 24 Nordeste 0 1007.7 -0.4 68
2017-08-06 12:00:00 27.1 15 Nordeste 26 Nordeste 0 1008.3 1.2 70
2017-08-06 11:00:00 27.7 18 Este 35 Oeste 0 1009.1 2.3 69
2017-08-06 10:00:00 26.5 4 Nordeste 28 Oeste 0 1008.1 1.6 70
2017-08-06 09:00:00 24.9 26 Oeste 41 Oeste 0 1007.1 1 75
2017-08-06 08:00:00 23.9 20 Oeste 42 Oeste 0 1006.8 0.7 77
2017-08-06 07:00:00 23.8 23 Oeste 39 Noroeste 0 1006.5 0.1 77
2017-08-06 06:00:00 23.6 28 Oeste 41 Oeste 0 1006.1 -1.1 79
2017-08-06 05:00:00 23.7 27 Noroeste 39 Noroeste 0 1006.1 -2.5 78
2017-08-06 04:00:00 23.3 27 Oeste 35 Oeste 0 1006.4 -3.7 80
2017-08-06 03:00:00 23 13 Norte 22 Norte 0 1007.2 -3 84
2017-08-06 02:00:00 23.5 19 Norte 30 Norte 0 1008.6 -1.3 83
2017-08-06 01:00:00 23.6 23 Nordeste 35 Nordeste 0 1010.1 1 84
2017-08-06 00:00:00 23.8 21 Nordeste 28 Nordeste 0 1010.2 1.4 86
2017-08-05 23:00:00 24.1 21 Norte 35 Norte 0 1009.9 2 79
2017-08-05 22:00:00 24.1 26 Norte 39 Norte 0 1009.1 1.5 80
2017-08-05 21:00:00 25 26 Norte 42 Norte 0 1008.8 1 75
2017-08-05 20:00:00 26.7 33 Norte 45 Norte 0 1007.9 0.1 70
2017-08-05 19:00:00 28.6 32 Norte 42 Norte 0 1007.6 -1.2 63
2017-08-05 18:00:00 26.5 31 Nordeste 50 Nordeste 0 1007.8 -1.4 76
2017-08-05 17:00:00 27.1 30 Nordeste 39 Nordeste 0 1007.8 -1.9 73
2017-08-05 16:00:00 26.4 18 Nordeste 30 Nordeste 0 1008.8 -1.7 75
2017-08-05 15:00:00 26.5 24 Nordeste 37 Nordeste 0 1009.2 -1.4 74
2017-08-05 14:00:00 26.8 30 Nordeste 39 Nordeste 0 1009.7 -1 72
2017-08-05 13:00:00 26.8 24 Nordeste 33 Nordeste 0 1010.5 0 70
2017-08-05 12:00:00 25.8 21 Nordeste 28 Nordeste 0 1010.6 0.1 74
2017-08-05 11:00:00 25.7 19 Nordeste 32 Nordeste 0 1010.7 0.7 75
2017-08-05 10:00:00 25.8 26 Nordeste 33 Nordeste 0 1010.5 0.6 71
2017-08-05 09:00:00 24.1 6 Norte 18 Norte 0 1010.5 0.5 75
2017-08-05 08:00:00 22.7 9 Norte 22 Noroeste 0 1010 -0.4 79
2017-08-05 07:00:00 22.5 11 Norte 18 Norte 0 1009.9 -0.6 80
2017-08-05 06:00:00 23 14 Norte 26 Nordeste 0 1010 -0.7 80
2017-08-05 05:00:00 23.3 19 Norte 28 Nordeste 0 1010.4 -0.6 81
2017-08-05 04:00:00 23.4 15 Norte 22 Norte 0 1010.5 -0.8 80
2017-08-05 03:00:00 23 17 Norte 24 Norte 0 1010.7 -1.1 80
2017-08-05 02:00:00 23.4 17 Norte 24 Norte 0 1011 -0.6 78
2017-08-05 01:00:00 23.6 18 Norte 28 Norte 0 1011.3 0.4 78
2017-08-05 00:00:00 23.8 21 Norte 39 Norte 0 1011.8 1.4 77
2017-08-04 23:00:00 24 30 Norte 41 Norte 0 1011.6 1.5 75
2017-08-04 22:00:00 24.8 22 Norte 30 Norte 0 1010.9 1.2 73
2017-08-04 21:00:00 25.8 22 Norte 33 Norte 0 1010.4 0.6 68
2017-08-04 20:00:00 27.1 27 Norte 58 Oeste 0 1010.1 -0.2 63
2017-08-04 19:00:00 28.8 27 Oeste 58 Oeste 0 1009.7 -0.9 58
2017-08-04 18:00:00 29.7 22 Norte 37 Nordeste 0 1009.8 -1.2 53
2017-08-04 17:00:00 26.6 28 Nordeste 48 Nordeste 0 1010.3 -1.2 72
2017-08-04 16:00:00 27.5 35 Nordeste 45 Nordeste 0 1010.6 -1.5 66
2017-08-04 15:00:00 27.4 31 Nordeste 41 Nordeste 0 1011 -1.5 66
2017-08-04 14:00:00 27.3 24 Nordeste 37 Nordeste 0 1011.5 -1.1 67
2017-08-04 13:00:00 26.4 23 Nordeste 32 Nordeste 0 1012.1 -0.4 68
2017-08-04 12:00:00 25.8 20 Nordeste 30 Nordeste 0 1012.5 0.3 68
2017-08-04 11:00:00 25.2 19 Nordeste 28 Nordeste 0 1012.6 0.8 70
2017-08-04 10:00:00 25 23 Norte 30 Norte 0 1012.5 1.2 68
2017-08-04 09:00:00 23.4 21 Norte 30 Norte 0 1012.2 0.9 73
2017-08-04 08:00:00 21.8 13 Norte 22 Norte 0 1011.8 0.2 77
2017-08-04 07:00:00 21.6 15 Norte 24 Norte 0 1011.3 -0.6 78
2017-08-04 06:00:00 21.8 22 Norte 33 Norte 0 1011.3 -1.1 79
2017-08-04 05:00:00 22 22 Norte 30 Norte 0 1011.6 -1.6 77
2017-08-04 04:00:00 22.4 24 Norte 32 Norte 0 1011.9 -1.9 75
2017-08-04 03:00:00 22.6 22 Norte 28 Norte 0 1012.4 -2 76
2017-08-04 02:00:00 22.7 15 Norte 26 Norte 0 1013.2 -1.2 75
2017-08-04 01:00:00 23 22 Norte 28 Norte 0 1013.8 -0.2 75
2017-08-04 00:00:00 23.2 19 Norte 33 Norte 0 1014.4 0.8 78
2017-08-03 23:00:00 23.2 23 Norte 32 Norte 0 1014.4 1.1 75
2017-08-03 22:00:00 23.6 25 Norte 33 Norte 0 1014 1 73
2017-08-03 21:00:00 23.7 23 Nordeste 33 Nordeste 0 1013.6 0.6 82
2017-08-03 20:00:00 24.5 26 Nordeste 37 Nordeste 0 1013.3 0 78
2017-08-03 19:00:00 25.2 29 Nordeste 39 Nordeste 0 1013 -0.7 74
2017-08-03 18:00:00 25.8 29 Nordeste 41 Nordeste 0 1013 -1.1 71
2017-08-03 17:00:00 26.2 29 Nordeste 37 Nordeste 0 1013.3 -1.4 69
2017-08-03 16:00:00 26.5 28 Nordeste 39 Nordeste 0 1013.7 -1.3 67
2017-08-03 15:00:00 26.7 29 Nordeste 39 Nordeste 0 1014.1 -1.2 65
2017-08-03 14:00:00 26.4 32 Nordeste 41 Nordeste 0 1014.7 -0.8 65
2017-08-03 13:00:00 26.3 28 Nordeste 37 Nordeste 0 1015 -0.4 66
2017-08-03 12:00:00 26.3 26 Nordeste 35 Nordeste 0 1015.3 -0.2 63
2017-08-03 11:00:00 25.4 26 Nordeste 35 Nordeste 0 1015.5 0.2 66
2017-08-03 10:00:00 24.5 26 Norte 39 Norte 0 1015.4 0.4 67
2017-08-03 09:00:00 23.1 27 Norte 35 Norte 0 1015.5 0.8 71
2017-08-03 08:00:00 21.4 18 Norte 26 Noroeste 0 1015.3 0.5 76
2017-08-03 07:00:00 21 15 Norte 26 Norte 0 1015 -0.1 76
2017-08-03 06:00:00 21.2 21 Norte 32 Norte 0 1014.7 -0.8 77
2017-08-03 05:00:00 21.5 23 Norte 28 Norte 0 1014.8 -1.2 77
2017-08-03 04:00:00 21.7 21 Norte 39 Norte 0 1015.1 -1.5 76
2017-08-03 03:00:00 22 20 Norte 32 Norte 0 1015.5 -1.4 75
2017-08-03 02:00:00 22.3 24 Norte 32 Norte 0 1016 -0.8 74
2017-08-03 01:00:00 22.5 22 Norte 35 Norte 0 1016.6 0.2 75
2017-08-03 00:00:00 22.9 25 Norte 32 Norte 0 1016.9 1.3 75
2017-08-02 23:00:00 23 23 Norte 35 Norte 0 1016.8 1.8 76
2017-08-02 22:00:00 23.5 25 Norte 37 Norte 0 1016.4 1.8 72
2017-08-02 21:00:00 24.1 27 Norte 45 Norte 0 1015.6 1.1 71
2017-08-02 20:00:00 24.9 28 Norte 39 Norte 0 1015 0.2 71
2017-08-02 19:00:00 25.2 30 Nordeste 42 Nordeste 0 1014.6 -0.4 74
2017-08-02 18:00:00 25.9 32 Nordeste 42 Nordeste 0 1014.5 -0.9 70
2017-08-02 17:00:00 26.4 30 Nordeste 42 Nordeste 0 1014.8 -0.8 68
2017-08-02 16:00:00 26.5 31 Nordeste 42 Nordeste 0 1015 -0.7 67
2017-08-02 15:00:00 26.6 31 Nordeste 42 Nordeste 0 1015.4 -0.5 66
2017-08-02 14:00:00 26.5 31 Nordeste 41 Nordeste 0 1015.6 0.1 66
2017-08-02 13:00:00 26.5 30 Nordeste 41 Nordeste 0 1015.7 0.6 66
2017-08-02 12:00:00 26.2 28 Nordeste 37 Nordeste 0 1015.9 1.3 68
2017-08-02 11:00:00 25.6 30 Nordeste 37 Nordeste 0 1015.5 1 65
2017-08-02 10:00:00 24.8 26 Nordeste 37 Nordeste 0 1015.1 1 67
2017-08-02 09:00:00 23.6 24 Norte 32 Norte 0 1014.6 1 73
2017-08-02 08:00:00 21.9 15 Norte 22 Norte 0 1014.5 1 78
2017-08-02 07:00:00 21.5 18 Norte 24 Norte 0 1014.1 0.4 78
2017-08-02 06:00:00 21.5 17 Norte 26 Norte 0 1013.6 -0.1 77
2017-08-02 05:00:00 21.7 16 Norte 30 Norte 0 1013.5 -0.9 79
2017-08-02 04:00:00 21.8 17 Norte 26 Norte 0 1013.7 -1 79
2017-08-02 03:00:00 21.9 18 Norte 24 Norte 0 1013.7 -1.3 78
2017-08-02 02:00:00 22.1 21 Norte 33 Norte 0 1014.4 -0.3 77
2017-08-02 01:00:00 22.4 29 Norte 39 Norte 0 1014.7 0.2 78
2017-08-02 00:00:00 22.8 20 Norte 30 Norte 0 1015 1.3 74
2017-08-01 23:00:00 23.2 21 Norte 33 Norte 0 1014.7 1.3 76
2017-08-01 22:00:00 23.6 24 Norte 35 Norte 0 1014.5 1.3 73
2017-08-01 21:00:00 23.8 26 Norte 35 Norte 0 1013.7 0.6 74
2017-08-01 20:00:00 24.1 24 Nordeste -- -- -- 1013.4 0.2 78
2017-08-01 19:00:00 25 24 Nordeste 35 Nordeste 0 1013.2 0.1 71
2017-08-01 18:00:00 25.7 28 Nordeste 35 Nordeste 0 1013.1 -0.1 68
2017-08-01 17:00:00 26.2 26 Nordeste 35 Nordeste 0 1013.2 -0.1 65
2017-08-01 16:00:00 26.5 25 Nordeste 35 Nordeste 0 1013.1 -0.2 66
2017-08-01 15:00:00 26.6 26 Nordeste 37 Nordeste 0 1013.2 -0.1 66
2017-08-01 14:00:00 26.4 30 Nordeste 37 Nordeste 0 1013.3 0 65
2017-08-01 13:00:00 26.8 26 Nordeste 37 Nordeste 0 1013.3 0.5 63
2017-08-01 12:00:00 26.3 30 Nordeste 37 Nordeste 0 1013.3 0.6 65
2017-08-01 11:00:00 25.2 23 Nordeste 30 Nordeste 0 1013.3 1.3 71
2017-08-01 10:00:00 24.4 22 Nordeste 28 Nordeste 0 1012.8 1.2 73
2017-08-01 09:00:00 23.8 21 Norte 28 Norte 0 1012.7 1.1 74
2017-08-01 08:00:00 22.2 20 Norte 30 Norte 0 1012 0.3 82
2017-08-01 07:00:00 22.1 22 Norte 32 Norte 0 1011.6 -0.1 82
2017-08-01 06:00:00 22 21 Norte 28 Norte 0 1011.6 -0.5 79
2017-08-01 05:00:00 22.2 17 Norte 28 Norte 0 1011.7 -0.7 79
2017-08-01 04:00:00 22.5 20 Norte 28 Norte 0 1011.7 -1 79
2017-08-01 03:00:00 22.3 21 Norte 32 Norte 0 1012.1 -0.8 78
2017-08-01 02:00:00 22.6 22 Norte 37 Norte 0 1012.4 -0.3 79
2017-08-01 01:00:00 22.6 24 Norte 37 Norte 0 1012.7 0.5 75
2017-08-01 00:00:00 22.9 31 Norte 39 Norte 0 1012.9 1.3 74
2017-07-31 23:00:00 23.1 23 Norte 33 Norte 0 1012.7 1.7 74
2017-07-31 22:00:00 23.5 26 Norte 37 Norte 0 1012.2 1.4 71
2017-07-31 21:00:00 24.3 29 Norte 35 Norte 0 1011.6 0.5 68
2017-07-31 20:00:00 24.3 23 Nordeste -- -- -- 1011 -0.1 75
2017-07-31 19:00:00 25.1 24 Nordeste 32 Nordeste 0 1010.8 -0.4 71
2017-07-31 18:00:00 25.8 24 Nordeste 33 Nordeste 0 1011.1 -0.3 66
2017-07-31 17:00:00 26.2 23 Nordeste 33 Nordeste 0 1011.1 -0.8 67
2017-07-31 16:00:00 26.3 27 Nordeste 37 Nordeste 0 1011.2 -0.8 64
2017-07-31 15:00:00 26.4 28 Nordeste 37 Nordeste 0 1011.4 -0.6 64
2017-07-31 14:00:00 26 27 Nordeste 35 Nordeste 0 1011.9 0.2 65
2017-07-31 13:00:00 25.7 27 Nordeste 35 Nordeste 0 1012 0.3 64
2017-07-31 12:00:00 25.7 27 Nordeste 35 Nordeste 0 1012 0.4 64
2017-07-31 11:00:00 25 30 Nordeste 37 Nordeste 0 1011.7 -0.1 65
2017-07-31 10:00:00 24.1 26 Nordeste 33 Nordeste 0 1011.7 0.4 68
2017-07-31 09:00:00 22.8 20 Nordeste 30 Norte 0 1011.6 0.5 73
2017-07-31 08:00:00 22 23 Norte 30 Norte 0 1011.8 0.7 74
2017-07-31 07:00:00 21.6 22 Norte 33 Norte 0 1011.3 0 76
2017-07-31 06:00:00 21.8 27 Norte 39 Norte 0 1011.1 -0.5 76
2017-07-31 05:00:00 22.1 28 Norte 35 Norte 0 1011.1 -1.1 76
2017-07-31 04:00:00 22.2 26 Norte 35 Norte 0 1011.3 -1.1 76
2017-07-31 03:00:00 22 26 Norte 35 Norte 0 1011.6 -1 76
2017-07-31 02:00:00 21.9 19 Norte 33 Norte 0 1012.2 -0.4 77
2017-07-31 01:00:00 22.4 24 Norte 33 Norte 0 1012.4 0.3 80
2017-07-31 00:00:00 22.5 20 Norte 33 Nordeste 0 1012.6 1 78
2017-07-30 23:00:00 22.8 20 Nordeste 28 Nordeste 0 1012.6 1 83
2017-07-30 22:00:00 22.8 21 Nordeste 30 Nordeste 0 1012.1 0.6 84
2017-07-30 21:00:00 23 24 Nordeste 32 Nordeste 0 1011.6 0.1 82
2017-07-30 20:00:00 23.9 21 Nordeste 32 Nordeste 0 1011.6 0 77
2017-07-30 19:00:00 24.6 23 Nordeste 33 Nordeste 0 1011.5 -0.3 75
2017-07-30 18:00:00 25.3 26 Nordeste 35 Nordeste 0 1011.5 -0.6 73
2017-07-30 17:00:00 25.5 26 Nordeste 41 Nordeste 0 1011.6 -0.6 72
2017-07-30 16:00:00 25.6 30 Nordeste 37 Nordeste 0 1011.8 -0.5 71
2017-07-30 15:00:00 25.8 25 Nordeste 33 Nordeste 0 1012.1 -0.3 70
2017-07-30 14:00:00 25.8 28 Nordeste 35 Nordeste 0 1012.2 -0.3 70
2017-07-30 13:00:00 25.7 29 Nordeste 41 Nordeste 0 1012.3 -0.2 71
2017-07-30 12:00:00 25.4 29 Nordeste 37 Nordeste 0 1012.4 0.2 73
2017-07-30 11:00:00 24.6 21 Nordeste 28 Nordeste 0 1012.5 0.5 76
2017-07-30 10:00:00 23.5 22 Nordeste 30 Nordeste 0 1012.5 1 80
2017-07-30 09:00:00 22.7 20 Nordeste 30 Norte 0 1012.2 0.6 84
2017-07-30 08:00:00 21.9 20 Norte 30 Norte 0 1012 0.3 86
2017-07-30 07:00:00 21.4 17 Norte 26 Nordeste 0 1011.5 -1 87
2017-07-30 06:00:00 21.8 10 Norte 24 Nordeste 0 1011.6 -1.3 88
2017-07-30 05:00:00 22.1 19 Nordeste 26 Norte 0 1011.7 -1.8 88
2017-07-30 04:00:00 22.3 18 Norte 30 Nordeste 0 1012.5 -1.3 88
2017-07-30 03:00:00 22.4 21 Nordeste 28 Nordeste 0 1012.9 -1.1 90
2017-07-30 02:00:00 22.5 18 Nordeste 24 Nordeste 0 1013.5 -0.2 91
2017-07-30 01:00:00 22.8 18 Nordeste 24 Nordeste 0 1013.8 0.9 90
2017-07-30 00:00:00 23.4 17 Nordeste 26 Nordeste 0 1014 1.9 89
2017-07-29 23:00:00 24.1 22 Nordeste 30 Nordeste 0 1013.7 2.4 85
2017-07-29 22:00:00 25 27 Nordeste 41 Nordeste 0 1012.9 1.9 81
2017-07-29 21:00:00 26.6 20 Norte 33 Nordeste 0 1012.1 0.9 73
2017-07-29 20:00:00 26.9 26 Nordeste 42 Nordeste 0 1011.3 -0.6 73
2017-07-29 19:00:00 27.7 28 Norte 41 Nordeste 0 1011 -1.4 69
2017-07-29 18:00:00 27.5 33 Nordeste 42 Nordeste 0 1011.2 -1.3 72
2017-07-29 17:00:00 28.3 24 Nordeste 33 Nordeste 0 1011.9 -1.2 68
2017-07-29 16:00:00 27.1 16 Nordeste 26 Nordeste 0 1012.4 -1.1 72
2017-07-29 15:00:00 27.6 21 Nordeste 30 Nordeste 0 1012.5 -1 65
2017-07-29 14:00:00 27 18 Nordeste 24 Nordeste 0 1013.1 -0.3 69
2017-07-29 13:00:00 25.8 15 Nordeste 24 Nordeste 0 1013.5 0.2 76
2017-07-29 12:00:00 25.7 18 Nordeste 22 Nordeste 0 1013.5 0.8 76
2017-07-29 11:00:00 25.3 17 Nordeste 24 Nordeste 0 1013.4 1 78
2017-07-29 10:00:00 25.2 17 Nordeste 28 Nordeste 0 1013.3 1.3 76
2017-07-29 09:00:00 24.7 20 Norte 26 Norte 0 1012.7 0.7 73
2017-07-29 08:00:00 23.2 19 Norte 26 Norte 0 1012.4 0.7 79
2017-07-29 07:00:00 22.8 17 Norte 24 Norte 0 1012 0.2 79
2017-07-29 06:00:00 23.1 18 Norte 24 Norte 0 1012 0.1 74
2017-07-29 05:00:00 23.4 14 Norte 18 Norte 0 1011.7 -0.7 70
2017-07-29 04:00:00 23.4 13 Norte 18 Norte 0 1011.8 -1.1 76
2017-07-29 03:00:00 23.8 15 Norte 26 Norte 0 1011.9 -1 74
2017-07-29 02:00:00 24.3 18 Norte 30 Norte 0 1012.4 -0.1 70
2017-07-29 01:00:00 24.4 9 Norte 18 Norte 0 1012.9 1.3 68
2017-07-29 00:00:00 26.3 12 Norte 22 Nordeste 0 1012.9 1.2 52
2017-07-28 23:00:00 26.8 8 Norte 35 Norte 0 1012.5 1 53
2017-07-28 22:00:00 27.3 28 Norte 37 Norte 0 1011.6 0.5 52
2017-07-28 21:00:00 27.4 21 Norte 28 Norte 0 1011.7 0.4 56
2017-07-28 20:00:00 28.5 18 Norte 32 Norte 0 1011.5 -0.1 55
2017-07-28 19:00:00 29.6 26 Norte 41 Norte 0 1011.1 -0.9 45
2017-07-28 18:00:00 30.8 30 Norte 41 Norte 0 1011.3 -1 41
2017-07-28 17:00:00 31.4 30 Norte 37 Norte 0 1011.6 -0.9 37
2017-07-28 16:00:00 30.8 28 Norte 35 Norte 0 1012 -0.7 43
2017-07-28 15:00:00 31 23 Nordeste 33 Norte 0 1012.3 -0.7 42
2017-07-28 14:00:00 30.2 25 Norte 35 Norte 0 1012.5 -0.5 44
2017-07-28 13:00:00 29.9 22 Norte 30 Norte 0 1012.7 0.2 45
2017-07-28 12:00:00 28.3 12 Norte 24 Norte 0 1013 1.2 54
2017-07-28 11:00:00 26.9 7 Norte 17 Nordeste 0 1013 1.8 63
2017-07-28 10:00:00 26.3 13 Nordeste 26 Norte 0 1012.5 1.8 66
2017-07-28 09:00:00 25.6 22 Norte 30 Norte 0 1011.8 2.3 65
2017-07-28 08:00:00 24.1 18 Norte 26 Norte 0 1011.2 1.9 73
2017-07-28 07:00:00 24.5 15 Nordeste 26 Norte 0 1010.7 1.2 67
2017-07-28 06:00:00 25.3 18 Norte 37 Norte 0 1009.5 -1 52
2017-07-28 05:00:00 25.5 30 Norte 46 Norte 0 1009.3 -1.9 50
2017-07-28 04:00:00 24.9 35 Norte 50 Norte 0 1009.5 -2.1 58
2017-07-28 03:00:00 24.5 31 Norte 41 Norte 0 1010.5 -1.5 67
2017-07-28 02:00:00 24.7 27 Norte 42 Norte 0 1011.2 -0.6 67
2017-07-28 01:00:00 24.8 24 Norte 32 Norte 0 1011.6 0.3 65
2017-07-28 00:00:00 25 18 Norte 24 Norte 0 1012 1.3 70
2017-07-27 23:00:00 25.4 14 Norte 22 Norte 0 1011.8 1.8 72
2017-07-27 22:00:00 26.2 16 Norte 28 Norte 0 1011.3 1.9 69
2017-07-27 21:00:00 26.5 18 Nordeste 24 Nordeste 0 1010.7 1.4 73
2017-07-27 20:00:00 28.3 8 Nordeste 28 Nordeste 0 1010 0.3 64
2017-07-27 19:00:00 31.8 21 Norte 30 Nordeste 0 1009.4 -0.5 40
2017-07-27 18:00:00 28.7 17 Nordeste 26 Nordeste 0 1009.3 -0.9 64
2017-07-27 17:00:00 28.1 16 Nordeste 26 Nordeste 0 1009.7 -0.8 66
2017-07-27 16:00:00 27.6 17 Nordeste 26 Nordeste 0 1009.9 -0.7 67
2017-07-27 15:00:00 27.4 18 Nordeste 26 Nordeste 0 1010.2 -0.7 70
2017-07-27 14:00:00 26.5 19 Nordeste 26 Nordeste 0 1010.5 -0.5 70
2017-07-27 13:00:00 26.1 18 Nordeste 24 Nordeste 0 1010.6 -0.3 72
2017-07-27 12:00:00 25.2 19 Nordeste 26 Nordeste 0 1010.9 0.6 76
2017-07-27 11:00:00 24.5 18 Nordeste 26 Nordeste 0 1011 1.2 79
2017-07-27 10:00:00 23.9 21 Nordeste 33 Nordeste 0 1010.9 1.9 82
2017-07-27 09:00:00 23 24 Nordeste 33 Nordeste 0 1010.3 1.9 86
2017-07-27 08:00:00 22.4 25 Nordeste 32 Nordeste 0 1009.8 1.4 89
2017-07-27 07:00:00 22.2 21 Nordeste 30 Nordeste 0 1009 0.2 86
2017-07-27 06:00:00 22.3 22 Nordeste 28 Nordeste 0 1008.4 -0.8 85
2017-07-27 05:00:00 22.1 20 Norte 30 Norte 0 1008.4 -1.5 83
2017-07-27 04:00:00 22.3 21 Nordeste 28 Nordeste 0 1008.8 -1.6 82
2017-07-27 03:00:00 22.6 20 Norte 28 Nordeste 0 1009.2 -1.4 77
2017-07-27 02:00:00 23 22 Nordeste 30 Nordeste 0 1009.9 -0.7 77
2017-07-27 01:00:00 23.4 23 Nordeste 28 Nordeste 0 1010.4 0.4 77
2017-07-27 00:00:00 24.3 21 Nordeste 30 Norte 0 1010.6 1.3 66
2017-07-26 23:00:00 25.2 20 Norte 30 Norte 0 1010.6 1.6 60
2017-07-26 22:00:00 26.1 20 Norte 28 Norte 0 1010 1.5 56
2017-07-26 21:00:00 27.1 23 Norte 35 Norte 0 1009.3 0.7 53
2017-07-26 20:00:00 28.8 24 Norte 37 Norte 0 1009 0.1 49
2017-07-26 19:00:00 29.8 28 Norte 39 Norte 0 1008.5 -0.8 48
2017-07-26 18:00:00 30.1 27 Norte 39 Norte 0 1008.6 -1.1 51
2017-07-26 17:00:00 28.2 30 Nordeste 39 Nordeste 0 1008.9 -1.2 63
2017-07-26 16:00:00 28 31 Nordeste 42 Nordeste 0 1009.3 -1.2 63
2017-07-26 15:00:00 27.2 32 Nordeste 41 Nordeste 0 1009.7 -1 67
2017-07-26 14:00:00 26.5 25 Nordeste 33 Nordeste 0 1010.1 -0.4 71
2017-07-26 13:00:00 26.4 21 Nordeste 28 Nordeste 0 1010.5 0.1 71
2017-07-26 12:00:00 25.7 17 Nordeste 26 Nordeste 0 1010.7 0.7 72
2017-07-26 11:00:00 25.5 20 Nordeste 32 Nordeste 0 1010.5 0.7 70
2017-07-26 10:00:00 24.9 22 Nordeste 32 Nordeste 0 1010.4 1 74
2017-07-26 09:00:00 23.9 22 Nordeste 28 Nordeste 0 1010 0.6 73
2017-07-26 08:00:00 22.3 19 Norte 26 Norte 0 1009.8 0.4 75
2017-07-26 07:00:00 22.1 21 Norte 28 Norte 0 1009.4 -0.2 74
2017-07-26 06:00:00 21.9 22 Norte 32 Norte 0 1009.4 -0.5 78
2017-07-26 05:00:00 22 22 Norte 32 Norte 0 1009.4 -1.3 78
2017-07-26 04:00:00 22.5 24 Norte 33 Norte 0 1009.6 -1.5 75
2017-07-26 03:00:00 23.1 24 Norte 33 Norte 0 1009.9 -1.3 72
2017-07-26 02:00:00 23.7 25 Norte 33 Norte 0 1010.7 -0.2 67
2017-07-26 01:00:00 24.3 23 Norte 32 Norte 0 1011.1 0.7 61
2017-07-26 00:00:00 24.6 20 Norte 35 Norte 0 1011.2 1 60
2017-07-25 23:00:00 25.3 27 Norte 41 Norte 0 1010.9 1.1 56
2017-07-25 22:00:00 26 26 Norte 45 Noroeste 0 1010.4 0.9 54
2017-07-25 21:00:00 25.9 24 Norte 39 Norte 0 1010.2 0.1 63
2017-07-25 20:00:00 27.3 28 Norte 39 Norte 0 1009.8 -0.5 58
2017-07-25 19:00:00 25.5 27 Nordeste 37 Nordeste 0 1009.5 -1.2 78
2017-07-25 18:00:00 25.7 23 Nordeste 35 Nordeste 0 1010.1 -1 75
2017-07-25 17:00:00 26 27 Nordeste 37 Nordeste 0 1010.3 -1.1 73
2017-07-25 16:00:00 26.2 30 Nordeste 39 Nordeste 0 1010.7 -1.3 72
2017-07-25 15:00:00 26.3 28 Nordeste 41 Nordeste 0 1011.1 -1 72
2017-07-25 14:00:00 26.4 29 Nordeste 39 Nordeste 0 1011.4 -0.6 71
2017-07-25 13:00:00 26.2 27 Nordeste 35 Nordeste 0 1012 0.5 72
2017-07-25 12:00:00 25.8 27 Nordeste 33 Nordeste 0 1012.1 0.5 73
2017-07-25 11:00:00 25.5 25 Nordeste 35 Nordeste 0 1012 0.7 72
2017-07-25 10:00:00 24.5 28 Nordeste 35 Nordeste 0 1011.5 0.3 78
2017-07-25 09:00:00 24.3 23 Norte 32 Norte 0 1011.6 0.5 72
2017-07-25 08:00:00 23.3 19 Norte 26 Norte 0 1011.3 0.1 75
2017-07-25 07:00:00 23.2 18 Norte 30 Norte 0 1011.2 0 73
2017-07-25 06:00:00 22.8 18 Norte 26 Norte 0 1011.1 -0.6 77
2017-07-25 05:00:00 23.1 17 Norte 28 Norte 0 1011.2 -1.2 75
2017-07-25 04:00:00 23.6 21 Norte 32 Norte 0 1011.2 -1.9 72
2017-07-25 03:00:00 23.8 19 Norte 32 Norte 0 1011.7 -1.6 72
2017-07-25 02:00:00 24 22 Norte 33 Norte 0 1012.4 -1.1 71
2017-07-25 01:00:00 24.3 18 Norte 28 Norte 0 1013.1 0.1 71
2017-07-25 00:00:00 24.9 20 Norte 33 Norte 0 1013.3 1 67
2017-07-24 23:00:00 25.4 21 Norte 39 Norte 0 1013.5 1.3 64
2017-07-24 22:00:00 26 22 Norte 33 Norte 0 1013 1.3 60
2017-07-24 21:00:00 26.7 24 Norte 35 Norte 0 1012.3 0.6 61
2017-07-24 20:00:00 27.9 25 Norte 39 Norte 0 1012.2 -0.1 56
2017-07-24 19:00:00 28.7 28 Norte 39 Norte 0 1011.7 -1 58
2017-07-24 18:00:00 28.4 26 Nordeste 33 Nordeste 0 1011.7 -1.4 61
2017-07-24 17:00:00 28.8 25 Nordeste 35 Nordeste 0 1012.3 -1.4 59
2017-07-24 16:00:00 28.4 26 Nordeste 33 Nordeste 0 1012.7 -1.4 63
2017-07-24 15:00:00 27.7 21 Nordeste 28 Nordeste 0 1013.1 -1 65
2017-07-24 14:00:00 27.9 21 Nordeste 33 Nordeste 0 1013.7 -0.4 63
2017-07-24 13:00:00 28 27 Nordeste 35 Nordeste 0 1014.1 0.1 59
2017-07-24 12:00:00 27.1 26 Nordeste 39 Nordeste 0 1014.1 0.2 62
2017-07-24 11:00:00 26.5 30 Nordeste 42 Norte 0 1014.1 0.7 61
2017-07-24 10:00:00 25.8 28 Norte 42 Norte 0 1014 0.8 63
2017-07-24 09:00:00 24.1 23 Norte 33 Norte 0 1013.9 0.6 70
2017-07-24 08:00:00 22.9 26 Norte 37 Noroeste 0 1013.4 0.4 72
2017-07-24 07:00:00 22.6 26 Norte 35 Norte 0 1013.2 0 71
2017-07-24 06:00:00 22.5 21 Norte 30 Norte 0 1013.3 -0.6 70
2017-07-24 05:00:00 22.1 22 Norte 30 Norte 0 1013 -1.7 72
2017-07-24 04:00:00 21.9 22 Norte 28 Norte 0 1013.2 -2.3 75
2017-07-24 03:00:00 21.9 22 Norte 32 Norte 0 1013.9 -2 77
2017-07-24 02:00:00 22 21 Norte 32 Norte 0 1014.7 -0.9 78
2017-07-24 01:00:00 22.3 23 Norte 33 Norte 0 1015.5 0.5 78
2017-07-24 00:00:00 22.5 23 Norte 37 Norte 0 1015.9 1.4 78
2017-07-23 23:00:00 22.8 31 Norte 42 Nordeste 0 1015.6 1.7 76
2017-07-23 22:00:00 23 33 Norte 46 Nordeste 0 1015 1.5 77
2017-07-23 21:00:00 23.6 30 Norte 42 Norte 0 1014.5 1 75
2017-07-23 20:00:00 24.6 33 Nordeste 42 Nordeste 0 1013.9 0.5 72
2017-07-23 19:00:00 25.8 33 Nordeste 42 Nordeste 0 1013.5 -0.6 66
2017-07-23 18:00:00 25.6 29 Nordeste 42 Nordeste 0 1013.5 -1 72
2017-07-23 17:00:00 26 31 Nordeste 41 Nordeste 0 1013.4 -1.8 70
2017-07-23 16:00:00 26.3 32 Nordeste 42 Nordeste 0 1014.1 -1.3 67
2017-07-23 15:00:00 26.4 33 Nordeste 42 Nordeste 0 1014.5 -1.4 65
2017-07-23 14:00:00 26.3 32 Nordeste 42 Nordeste 0 1015.2 0.4 66
2017-07-23 13:00:00 26.1 33 Nordeste 42 Nordeste 0 1015.4 0.2 66
2017-07-23 12:00:00 25.6 30 Nordeste 42 Nordeste 0 1015.9 0.9 69
2017-07-23 11:00:00 25.4 33 Nordeste 45 Norte 0 1014.8 0.4 64
2017-07-23 10:00:00 23.9 32 Norte 42 Norte 0 1015.2 1.4 68
2017-07-23 09:00:00 22.6 35 Norte 42 Norte 0 1015 1.6 73
2017-07-23 08:00:00 21.2 21 Norte 30 Norte 0 1014.4 1.4 78
2017-07-23 07:00:00 20.9 21 Norte 33 Norte 0 1013.8 1 78
2017-07-23 06:00:00 20.9 16 Norte 30 Norte 0 1013.4 0.4 77
2017-07-23 05:00:00 21.2 26 Norte 41 Norte 0 1013 -0.7 76
2017-07-23 04:00:00 21.6 27 Norte 41 Norte 0 1012.8 -1.7 74
2017-07-23 03:00:00 21.8 28 Norte 45 Norte 0 1013 -1.8 75
2017-07-23 02:00:00 22 35 Norte 48 Norte 0 1013.7 -0.6 76
2017-07-23 01:00:00 22.2 34 Norte 46 Norte 0 1014.5 0.8 75
2017-07-23 00:00:00 22.2 35 Norte 45 Norte 0 1014.8 1.5 76
2017-07-22 23:00:00 22.2 27 Norte 46 Norte 0 1014.3 1 73
2017-07-22 22:00:00 22.5 36 Norte 52 Norte 0 1013.7 0.9 70
2017-07-22 21:00:00 23.1 36 Norte 48 Norte 0 1013.3 0.7 71
2017-07-22 20:00:00 23.6 31 Nordeste 45 Nordeste 0 1013.3 0.3 75
2017-07-22 19:00:00 24.4 33 Nordeste 42 Nordeste 0 1012.8 -0.5 70
2017-07-22 18:00:00 25.5 30 Nordeste 42 Nordeste 0 1012.6 -0.7 68
2017-07-22 17:00:00 25.9 35 Nordeste 48 Nordeste 0 1013 -0.9 62
2017-07-22 16:00:00 26.3 35 Nordeste 48 Nordeste 0 1013.3 -0.7 58
2017-07-22 15:00:00 26.3 38 Nordeste 48 Nordeste 0 1013.3 -0.6 60
2017-07-22 14:00:00 26.2 31 Nordeste 45 Nordeste 0 1013.9 0.1 59
2017-07-22 13:00:00 26 33 Nordeste 50 Norte 0 1014 0.3 55
2017-07-22 12:00:00 25.9 32 Nordeste 52 Nordeste 0 1013.9 0.7 56
2017-07-22 11:00:00 24.5 37 Norte 48 Norte 0 1013.8 1 56
2017-07-22 10:00:00 23.3 34 Norte 46 Norte 0 1013.7 1.2 64
2017-07-22 09:00:00 22.9 29 Norte 41 Norte 0 1013.2 1.1 64
2017-07-22 08:00:00 22.2 24 Norte 33 Norte 0 1012.8 0.8 68
2017-07-22 07:00:00 21.9 23 Norte 32 Norte 0 1012.5 0.4 72
2017-07-22 06:00:00 21.2 21 Norte 46 Norte 0 1012.1 -0.1 70
2017-07-22 05:00:00 21.4 32 Norte 46 Norte 0 1012 -0.6 70
2017-07-22 04:00:00 21.4 24 Norte 48 Norte 0 1012.1 -1 71
2017-07-22 03:00:00 22.1 30 Norte 42 Norte 0 1012.2 -1.2 73
2017-07-22 02:00:00 21.9 31 Norte 46 Norte 0 1012.6 -0.6 68
2017-07-22 01:00:00 22.1 28 Norte 41 Norte 0 1013.1 0.1 73
2017-07-22 00:00:00 22.1 28 Norte 42 Norte 0 1013.4 0.9 73
2017-07-21 23:00:00 22.5 32 Norte 45 Norte 0 1013.2 1 72
2017-07-21 22:00:00 22.7 33 Norte 46 Norte 0 1013 1 68
2017-07-21 21:00:00 23.2 31 Norte 42 Norte 0 1012.5 -- 68
2017-07-21 20:00:00 24.2 35 Norte 46 Norte 0 1012.2 -- 65
2017-07-21 19:00:00 25.2 36 Norte 50 Norte 0 1012 -0.7 58
2017-07-21 18:00:00 -- -- -- -- -- -- -- -- --
2017-07-21 17:00:00 -- -- -- -- -- -- -- -- --
2017-07-21 16:00:00 26.5 33 Nordeste 42 Nordeste 0 1012.7 -1.2 58
2017-07-21 15:00:00 26.3 31 Nordeste 46 Nordeste 0 1013.1 -1.1 60
2017-07-21 14:00:00 26 33 Nordeste 46 Nordeste 0 1013.3 -0.7 58
2017-07-21 13:00:00 26.2 36 Nordeste 48 Nordeste 0 1013.9 0.2 61
2017-07-21 12:00:00 24.9 31 Nordeste 42 Nordeste 0 1014.2 0.6 63
2017-07-21 11:00:00 25 33 Norte 45 Nordeste 0 1014 0.8 58
2017-07-21 10:00:00 23.9 31 Norte 54 Norte 0 1013.7 0.5 58
2017-07-21 09:00:00 22.6 40 Norte 55 Norte 0 1013.6 0.9 63
2017-07-21 08:00:00 21.9 28 Norte 41 Norte 0 1013.2 0.7 67
2017-07-21 07:00:00 21.7 34 Norte 46 Norte 0 1013.2 0.5 69
2017-07-21 06:00:00 21.7 32 Norte 42 Norte 0 1012.7 -0.5 73
2017-07-21 05:00:00 22.1 30 Norte 41 Norte 0 1012.5 -1.5 74
2017-07-21 04:00:00 22.2 30 Norte 41 Norte 0 1012.7 -1.9 76
2017-07-21 03:00:00 22.1 26 Norte 35 Norte 0 1013.2 -1.9 77
2017-07-21 02:00:00 22.1 27 Norte 42 Norte 0 1014 -0.9 77
2017-07-21 01:00:00 22.4 23 Norte 37 Norte 0 1014.6 0.3 75
2017-07-21 00:00:00 22.4 26 Norte 39 Norte 0 1015.1 1.2 73
2017-07-20 23:00:00 23 30 Norte 39 Norte 0 1014.9 1.4 75
2017-07-20 22:00:00 23.5 30 Norte 42 Norte 0 1014.3 0.9 73
2017-07-20 21:00:00 24.1 35 Norte 45 Norte 0 1013.9 0.1 70
2017-07-20 20:00:00 24.5 28 Nordeste 42 Norte 0 1013.5 -0.4 71
2017-07-20 19:00:00 24.9 27 Nordeste 37 Nordeste 0 1013.4 -0.4 74
2017-07-20 18:00:00 25.6 29 Nordeste 39 Nordeste 0 1013.8 -0.6 69
2017-07-20 17:00:00 26.1 31 Nordeste 42 Nordeste 0 1013.9 -1 67
2017-07-20 16:00:00 26.5 32 Nordeste 42 Nordeste 0 1013.8 -1.8 65
2017-07-20 15:00:00 26.6 24 Nordeste 35 Nordeste 0 1014.4 -1.2 63
2017-07-20 14:00:00 25.9 28 Nordeste 35 Nordeste 0 1014.9 -0.8 67
2017-07-20 13:00:00 25.1 23 Nordeste 41 Nordeste 0 1015.6 0 75
2017-07-20 12:00:00 25.1 24 Nordeste 35 Nordeste 0 1015.6 0.5 74
2017-07-20 11:00:00 24.4 29 Nordeste 41 Nordeste 0 1015.7 0.9 79
2017-07-20 10:00:00 23.9 32 Norte 42 Norte 0 1015.6 1 72
2017-07-20 09:00:00 23.4 28 Norte 35 Norte 0 1015.1 0.8 75
2017-07-20 08:00:00 22.9 24 Norte 41 Norte 0 1014.8 0.3 73
2017-07-20 07:00:00 22.7 26 Norte 41 Norte 0 1014.6 -0.1 75
2017-07-20 06:00:00 22.6 24 Norte 39 Norte 0 1014.3 -0.7 75
2017-07-20 05:00:00 22.6 25 Norte 37 Nordeste 0 1014.5 -0.4 76
2017-07-20 04:00:00 22.4 26 Norte 35 Norte 0 1014.7 -0.5 76
2017-07-20 03:00:00 22.4 22 Nordeste 32 Norte 0 1015 -0.4 78
2017-07-20 02:00:00 22.3 22 Norte 30 Norte 0 1014.9 -0.5 77
2017-07-20 01:00:00 22.3 22 Norte 33 Norte 0 1015.2 0.4 77
2017-07-20 00:00:00 22.4 26 Norte 35 Norte 0 1015.4 1.1 75
2017-07-19 23:00:00 22.5 25 Norte 35 Norte 0 1015.4 1.5 75
2017-07-19 22:00:00 22.9 26 Norte 39 Norte 0 1014.8 1 74
2017-07-19 21:00:00 23.5 23 Nordeste 41 Norte 0 1014.3 0.4 80
2017-07-19 20:00:00 24.1 31 Nordeste 39 Nordeste 0 1013.9 0 77
2017-07-19 19:00:00 24.8 30 Nordeste 41 Nordeste 0 1013.8 -0.3 74
2017-07-19 18:00:00 25.4 30 Nordeste 37 Nordeste 0 1013.9 -0.3 71
2017-07-19 17:00:00 25.9 26 Nordeste 37 Nordeste 0 1013.9 -0.4 70
2017-07-19 16:00:00 25.8 30 Nordeste 39 Nordeste 0 1014.1 -0.2 69
2017-07-19 15:00:00 26 30 Nordeste 41 Nordeste 0 1014.2 -0.1 68
2017-07-19 14:00:00 26.1 30 Nordeste 39 Nordeste 0 1014.3 0.1 68
2017-07-19 13:00:00 26 28 Nordeste 37 Nordeste 0 1014.3 0.3 68
2017-07-19 12:00:00 25.9 29 Nordeste 35 Nordeste 0 1014.3 0.6 67
2017-07-19 11:00:00 25 26 Nordeste 30 Nordeste 0 1014.2 1.1 70
2017-07-19 10:00:00 24.3 24 Nordeste 32 Nordeste 0 1014 1.5 73
2017-07-19 09:00:00 23.1 23 Norte 32 Norte 0 1013.7 1.8 75
2017-07-19 08:00:00 21.7 20 Norte 33 Norte 0 1013.1 1.5 80
2017-07-19 07:00:00 21.4 26 Norte 37 Norte 0 1012.5 0.7 81
2017-07-19 06:00:00 21.5 21 Norte 28 Norte 0 1011.9 0.1 80
2017-07-19 05:00:00 21.7 19 Norte 33 Norte 0 1011.6 -1.2 81
2017-07-19 04:00:00 21.8 23 Nordeste 32 Nordeste 0 1011.8 -1.4 82
2017-07-19 03:00:00 22.1 19 Norte 26 Norte 0 1011.8 -1.8 80
2017-07-19 02:00:00 22.4 14 Norte 21 Norte 0 1012.8 -0.6 79
2017-07-19 01:00:00 22.6 18 Norte 26 Norte 0 1013.2 0.5 77
2017-07-19 00:00:00 22.9 14 Norte 32 Norte 0 1013.6 1.8 78